Time;durP1;ratioP1;P1;durP2;ratioP2;P2;SDS_P1;SDS_P2;PMS_P1;PMS_P2;Temp;Humidity;BMP_temperature;BMP_pressure;BME280_temperature;BME280_humidity;BME280_pressure;Samples;Min_cycle;Max_cycle;Signal;HPM_P1;HPM_P2
2023/11/18 00:01:34;;;;;;;4.03;2.15;;;;;;;3.84;100.00;98133.66;5040685;28;20045;-64
2023/11/18 00:04:01;;;;;;;3.60;2.17;;;;;;;3.89;100.00;98133.09;5048105;28;20038;-63
2023/11/18 00:06:28;;;;;;;3.25;1.63;;;;;;;3.89;100.00;98125.91;5041306;28;20087;-64
2023/11/18 00:08:54;;;;;;;3.25;1.58;;;;;;;3.87;100.00;98124.44;5050711;28;20044;-63
2023/11/18 00:11:21;;;;;;;3.00;1.75;;;;;;;3.87;100.00;98127.13;5041446;28;20106;-64
2023/11/18 00:13:48;;;;;;;3.45;1.90;;;;;;;3.93;100.00;98129.03;5050219;28;20496;-63
2023/11/18 00:16:15;;;;;;;3.97;2.10;;;;;;;3.95;100.00;98129.69;5043961;28;20489;-64
2023/11/18 00:18:42;;;;;;;3.55;1.95;;;;;;;3.96;100.00;98127.81;5040802;28;20037;-63
2023/11/18 00:21:09;;;;;;;3.28;1.75;;;;;;;3.85;100.00;98129.13;5041577;28;20393;-64
2023/11/18 00:23:36;;;;;;;3.28;2.03;;;;;;;3.80;100.00;98128.88;5052255;28;20036;-63
2023/11/18 00:26:03;;;;;;;3.15;1.98;;;;;;;3.80;100.00;98128.88;5043149;28;20667;-63
2023/11/18 00:28:29;;;;;;;4.82;2.55;;;;;;;3.86;100.00;98133.47;5037016;28;20033;-63
2023/11/18 00:30:56;;;;;;;3.70;2.22;;;;;;;3.83;100.00;98136.56;5039779;28;20048;-64
2023/11/18 00:33:22;;;;;;;4.45;2.45;;;;;;;3.76;100.00;98137.28;5041650;28;20045;-63
2023/11/18 00:35:49;;;;;;;4.75;2.40;;;;;;;3.69;100.00;98139.06;5042093;28;20074;-63
2023/11/18 00:38:16;;;;;;;5.05;2.78;;;;;;;3.63;100.00;98147.84;5041602;28;20112;-63
2023/11/18 00:40:42;;;;;;;4.72;2.60;;;;;;;3.55;100.00;98145.28;5040170;28;20041;-63
2023/11/18 00:43:09;;;;;;;5.78;3.40;;;;;;;3.50;100.00;98169.94;5048487;28;20556;-63
2023/11/18 00:45:35;;;;;;;8.80;4.53;;;;;;;3.61;100.00;98171.34;5040364;28;20042;-63
2023/11/18 00:48:02;;;;;;;7.55;4.90;;;;;;;3.63;100.00;98159.41;5044689;28;20053;-63
2023/11/18 00:50:33;;;;;;;9.05;4.85;;;;;;;3.74;100.00;98157.25;5038030;28;20032;-64
2023/11/18 00:52:59;;;;;;;7.65;4.57;;;;;;;3.99;100.00;98146.19;5043140;28;20050;-64
2023/11/18 00:55:26;;;;;;;6.78;4.38;;;;;;;3.93;100.00;98125.50;5052979;28;20041;-63
2023/11/18 00:57:53;;;;;;;8.38;4.00;;;;;;;4.08;100.00;98120.91;5042868;28;20065;-65
2023/11/18 01:00:22;;;;;;;7.25;4.22;;;;;;;3.97;100.00;98130.31;5049922;28;20067;-64
2023/11/18 01:02:49;;;;;;;6.75;4.20;;;;;;;4.03;100.00;98129.53;5049619;28;20040;-65
2023/11/18 01:05:16;;;;;;;6.50;4.05;;;;;;;4.13;100.00;98125.72;5043052;28;20411;-65
2023/11/18 01:07:43;;;;;;;6.85;3.78;;;;;;;4.16;100.00;98120.78;5039428;28;20090;-65
2023/11/18 01:10:11;;;;;;;9.40;3.70;;;;;;;3.95;100.00;98127.00;5042194;28;20050;-65
2023/11/18 01:12:37;;;;;;;5.32;3.53;;;;;;;3.98;100.00;98125.78;5037645;28;20040;-65
2023/11/18 01:15:05;;;;;;;5.80;3.53;;;;;;;3.99;100.00;98122.06;5044603;28;20516;-65
2023/11/18 01:17:31;;;;;;;5.55;3.70;;;;;;;4.01;100.00;98126.22;5042192;28;20136;-65
2023/11/18 01:19:59;;;;;;;6.53;3.38;;;;;;;3.99;100.00;98124.75;5047941;28;20125;-64
2023/11/18 01:22:25;;;;;;;5.95;3.38;;;;;;;4.06;100.00;98135.53;5052309;28;20064;-64
2023/11/18 01:24:52;;;;;;;5.57;3.53;;;;;;;3.95;100.00;98142.22;5045237;28;20455;-64
2023/11/18 01:27:19;;;;;;;7.47;3.83;;;;;;;3.77;100.00;98148.84;5047047;28;20112;-65
2023/11/18 01:29:49;;;;;;;5.13;3.10;;;;;;;3.79;100.00;98152.16;5055831;28;20391;-64
2023/11/18 01:32:17;;;;;;;5.80;3.60;;;;;;;3.80;100.00;98159.19;5049736;28;20049;-65
2023/11/18 01:34:49;;;;;;;5.30;3.38;;;;;;;3.73;100.00;98153.72;5046258;28;20665;-65
2023/11/18 01:37:16;;;;;;;5.95;3.30;;;;;;;3.78;100.00;98147.81;5053808;28;20094;-65
2023/11/18 01:39:43;;;;;;;5.75;3.28;;;;;;;3.70;100.00;98153.28;5045160;28;20033;-65
2023/11/18 01:42:11;;;;;;;5.90;3.05;;;;;;;3.64;100.00;98150.34;5048003;28;20448;-65
2023/11/18 01:44:38;;;;;;;4.55;2.80;;;;;;;3.69;100.00;98149.75;5036845;28;20063;-64
2023/11/18 01:47:06;;;;;;;4.85;2.88;;;;;;;3.77;100.00;98152.34;5046108;28;20415;-65
2023/11/18 01:49:39;;;;;;;4.40;2.67;;;;;;;3.86;100.00;98150.38;5039618;28;20102;-64
2023/11/18 01:52:11;;;;;;;5.53;3.45;;;;;;;3.87;100.00;98149.34;5040609;28;20056;-64
2023/11/18 01:54:40;;;;;;;5.30;3.33;;;;;;;3.86;100.00;98146.88;5049734;28;20064;-65
2023/11/18 01:57:09;;;;;;;4.75;2.67;;;;;;;3.80;100.00;98145.78;5042764;28;20064;-65
2023/11/18 01:59:37;;;;;;;5.65;3.10;;;;;;;3.87;100.00;98152.03;5045901;28;20446;-65
2023/11/18 02:02:04;;;;;;;4.18;2.63;;;;;;;3.76;100.00;98148.00;5046066;28;20483;-64
2023/11/18 02:04:31;;;;;;;4.57;2.88;;;;;;;3.81;100.00;98151.97;5039633;28;20137;-64
2023/11/18 02:06:58;;;;;;;5.18;2.95;;;;;;;3.83;100.00;98144.59;5039966;28;20479;-65
2023/11/18 02:09:28;;;;;;;4.95;2.80;;;;;;;3.72;100.00;98152.06;5051278;28;20044;-65
2023/11/18 02:12:09;;;;;;;4.43;2.70;;;;;;;3.78;100.00;98147.81;5043813;28;20032;-64
2023/11/18 02:14:39;;;;;;;4.60;2.78;;;;;;;3.87;100.00;98146.69;5035889;28;20065;-64
2023/11/18 02:17:09;;;;;;;5.35;2.63;;;;;;;3.82;100.00;98140.22;5029535;28;20041;-65
2023/11/18 02:19:38;;;;;;;4.03;2.00;;;;;;;3.85;100.00;98142.53;5040386;28;20029;-64
2023/11/18 02:22:07;;;;;;;4.85;2.72;;;;;;;3.76;100.00;98139.97;5045611;28;20047;-65
2023/11/18 02:24:37;;;;;;;4.10;2.40;;;;;;;3.70;100.00;98140.72;5039259;28;20036;-64
2023/11/18 02:27:07;;;;;;;4.53;2.67;;;;;;;3.47;100.00;98139.00;5035884;28;20040;-64
2023/11/18 02:29:37;;;;;;;3.88;2.38;;;;;;;3.32;100.00;98127.50;5042174;28;20033;-64
2023/11/18 02:32:15;;;;;;;4.55;2.58;;;;;;;3.10;100.00;98146.16;5049225;28;20079;-64
2023/11/18 02:34:53;;;;;;;4.57;2.40;;;;;;;2.69;100.00;98148.22;5044035;28;20032;-64
2023/11/18 02:37:21;;;;;;;4.55;2.67;;;;;;;2.57;100.00;98155.03;5046657;28;20056;-65
2023/11/18 02:39:57;;;;;;;6.15;3.13;;;;;;;2.48;100.00;98167.66;5040723;28;20041;-64
2023/11/18 02:42:24;;;;;;;5.43;3.15;;;;;;;2.37;100.00;98184.09;5041959;28;20046;-65
2023/11/18 02:44:59;;;;;;;5.85;3.08;;;;;;;2.14;100.00;98183.06;5040581;28;20041;-64
2023/11/18 02:47:26;;;;;;;5.75;3.13;;;;;;;1.97;100.00;98184.19;5043916;28;20049;-64
2023/11/18 02:49:56;;;;;;;7.30;4.03;;;;;;;2.01;100.00;98209.56;5030625;28;20124;-65
2023/11/18 02:52:22;;;;;;;6.70;3.75;;;;;;;1.94;100.00;98218.28;5047222;28;20124;-65
2023/11/18 02:54:49;;;;;;;6.55;3.80;;;;;;;1.92;100.00;98228.28;5034862;28;20048;-65
2023/11/18 02:57:16;;;;;;;6.35;3.40;;;;;;;1.75;100.00;98211.53;5039130;28;20132;-65
2023/11/18 02:59:42;;;;;;;14.43;4.32;;;;;;;1.66;100.00;98218.72;5040835;28;20048;-65
2023/11/18 03:02:09;;;;;;;9.15;5.00;;;;;;;1.89;100.00;98252.69;5038984;28;20037;-64
2023/11/18 03:04:36;;;;;;;10.82;4.70;;;;;;;1.85;100.00;98256.72;5046359;28;20128;-64
2023/11/18 03:07:03;;;;;;;7.47;4.35;;;;;;;1.92;100.00;98254.19;5040545;28;20500;-65
2023/11/18 03:09:29;;;;;;;9.00;4.88;;;;;;;2.06;100.00;98266.78;5036610;28;20140;-64
2023/11/18 03:11:56;;;;;;;7.95;4.80;;;;;;;2.14;100.00;98262.41;5039250;28;20053;-65
2023/11/18 03:14:23;;;;;;;8.52;4.47;;;;;;;2.19;100.00;98260.06;5038229;28;20064;-65
2023/11/18 03:16:49;;;;;;;8.27;4.97;;;;;;;2.23;100.00;98260.50;5041057;28;20044;-64
2023/11/18 03:19:16;;;;;;;9.10;5.57;;;;;;;2.20;100.00;98251.88;5040663;28;20042;-64
2023/11/18 03:21:43;;;;;;;9.45;5.18;;;;;;;2.17;100.00;98252.19;5041478;28;20063;-65
2023/11/18 03:24:09;;;;;;;10.85;4.80;;;;;;;2.15;100.00;98243.53;5036081;28;20041;-64
2023/11/18 03:26:36;;;;;;;9.02;5.47;;;;;;;2.14;100.00;98251.72;5036338;28;20431;-64
2023/11/18 03:29:02;;;;;;;9.32;5.30;;;;;;;2.15;100.00;98242.69;5040454;28;20128;-64
2023/11/18 03:31:29;;;;;;;8.60;5.05;;;;;;;2.23;100.00;98253.34;5039522;28;20040;-64
2023/11/18 03:33:56;;;;;;;9.23;5.80;;;;;;;2.17;100.00;98259.38;5041852;28;20072;-64
2023/11/18 03:36:22;;;;;;;7.90;4.45;;;;;;;2.18;100.00;98261.06;5046531;28;20123;-64
2023/11/18 03:38:49;;;;;;;8.98;5.38;;;;;;;2.16;100.00;98257.72;5044882;28;20040;-64
2023/11/18 03:41:15;;;;;;;9.95;5.22;;;;;;;2.09;100.00;98260.25;5043679;28;20075;-64
2023/11/18 03:43:42;;;;;;;7.22;4.70;;;;;;;1.99;100.00;98248.97;5038170;28;20041;-64
2023/11/18 03:46:11;;;;;;;8.70;5.13;;;;;;;1.90;100.00;98238.34;5042591;28;20055;-65
2023/11/18 03:48:37;;;;;;;8.95;5.05;;;;;;;1.89;100.00;98244.69;5046270;28;20033;-64
2023/11/18 03:51:04;;;;;;;8.88;5.20;;;;;;;1.76;100.00;98228.38;5038107;28;20724;-65
2023/11/18 03:53:33;;;;;;;8.65;4.95;;;;;;;1.72;100.00;98232.38;5038345;28;20037;-64
2023/11/18 03:56:00;;;;;;;7.35;4.50;;;;;;;1.64;100.00;98233.25;5034985;28;20037;-64
2023/11/18 03:58:26;;;;;;;8.57;4.80;;;;;;;1.60;100.00;98237.28;5035155;28;20055;-64
2023/11/18 04:00:53;;;;;;;8.30;5.18;;;;;;;1.65;100.00;98238.44;5035952;28;20045;-64
2023/11/18 04:03:20;;;;;;;11.77;6.18;;;;;;;1.64;100.00;98244.78;5035972;28;20067;-64
2023/11/18 04:05:47;;;;;;;10.70;5.57;;;;;;;1.56;100.00;98237.63;5037387;28;20060;-65
2023/11/18 04:08:14;;;;;;;10.93;5.57;;;;;;;1.59;100.00;98240.97;5039785;28;20132;-65
2023/11/18 04:10:40;;;;;;;9.25;5.13;;;;;;;1.54;100.00;98236.97;5041086;28;20048;-64
2023/11/18 04:13:07;;;;;;;10.13;4.65;;;;;;;1.61;100.00;98241.59;5039180;28;20061;-64
2023/11/18 04:15:35;;;;;;;9.25;5.22;;;;;;;1.54;100.00;98247.66;5039444;28;20542;-64
2023/11/18 04:18:02;;;;;;;8.60;5.10;;;;;;;1.51;100.00;98239.16;5032221;28;20488;-65
2023/11/18 04:20:28;;;;;;;7.88;5.10;;;;;;;1.48;100.00;98251.03;5048124;28;20041;-64
2023/11/18 04:22:55;;;;;;;7.55;4.35;;;;;;;1.43;100.00;98242.66;5041145;28;20102;-65
2023/11/18 04:25:22;;;;;;;7.85;4.32;;;;;;;1.34;100.00;98236.53;5037449;28;20054;-64
2023/11/18 04:27:48;;;;;;;8.05;4.25;;;;;;;1.28;100.00;98231.88;5038668;28;20033;-65
2023/11/18 04:30:15;;;;;;;8.45;4.78;;;;;;;1.29;100.00;98230.88;5041424;28;20428;-64
2023/11/18 04:32:42;;;;;;;9.40;4.68;;;;;;;1.32;100.00;98235.88;5036432;28;20059;-64
2023/11/18 04:35:11;;;;;;;8.32;4.70;;;;;;;1.41;100.00;98239.34;5034671;28;20071;-64
2023/11/18 04:37:42;;;;;;;8.68;5.22;;;;;;;1.50;100.00;98243.66;5033946;28;20067;-64
2023/11/18 04:40:09;;;;;;;11.23;5.50;;;;;;;1.48;100.00;98229.66;5033632;28;20033;-64
2023/11/18 04:42:40;;;;;;;7.57;4.03;;;;;;;1.47;100.00;98216.50;5038352;28;20115;-64
2023/11/18 04:45:09;;;;;;;10.30;5.10;;;;;;;1.45;100.00;98215.81;5035992;28;20037;-65
2023/11/18 04:47:37;;;;;;;11.77;5.15;;;;;;;1.32;100.00;98205.69;5048050;28;20032;-64
2023/11/18 04:50:04;;;;;;;9.68;5.00;;;;;;;1.31;100.00;98207.53;5033719;28;20431;-64
2023/11/18 04:52:34;;;;;;;10.02;4.88;;;;;;;1.27;100.00;98214.19;5039935;28;20036;-64
2023/11/18 04:55:01;;;;;;;9.68;5.25;;;;;;;1.13;100.00;98211.25;5052809;28;20041;-64
2023/11/18 04:57:28;;;;;;;8.52;4.60;;;;;;;1.06;100.00;98214.75;5050287;28;20392;-64
2023/11/18 04:59:54;;;;;;;9.50;4.72;;;;;;;1.02;100.00;98222.25;5036829;28;20041;-65
2023/11/18 05:02:21;;;;;;;8.13;4.63;;;;;;;0.97;100.00;98219.28;5037621;28;20103;-64
2023/11/18 05:04:48;;;;;;;11.05;5.72;;;;;;;0.94;100.00;98223.09;5051941;28;20048;-64
2023/11/18 05:07:15;;;;;;;11.35;5.50;;;;;;;0.93;100.00;98225.94;5041363;28;20107;-64
2023/11/18 05:09:42;;;;;;;8.75;4.85;;;;;;;0.95;100.00;98216.75;5044173;28;20492;-64
2023/11/18 05:12:09;;;;;;;9.65;5.70;;;;;;;1.04;100.00;98225.59;5043919;28;20041;-64
2023/11/18 05:14:35;;;;;;;10.45;5.80;;;;;;;1.12;100.00;98222.91;5041512;28;20044;-64
2023/11/18 05:17:04;;;;;;;11.15;5.75;;;;;;;0.99;100.00;98215.44;5034883;28;20033;-64
2023/11/18 05:19:31;;;;;;;10.98;5.57;;;;;;;1.00;100.00;98208.28;5040571;28;20059;-64
2023/11/18 05:21:59;;;;;;;9.10;5.45;;;;;;;1.00;100.00;98216.28;5044907;28;20052;-65
2023/11/18 05:24:26;;;;;;;9.73;6.07;;;;;;;1.01;100.00;98212.59;5043441;28;20049;-64
2023/11/18 05:26:53;;;;;;;9.02;5.63;;;;;;;1.00;100.00;98225.09;5052078;28;20037;-65
2023/11/18 05:29:20;;;;;;;10.70;5.57;;;;;;;1.00;100.00;98226.94;5037197;28;20099;-64
2023/11/18 05:31:47;;;;;;;8.77;5.40;;;;;;;1.02;100.00;98228.44;5042056;28;20045;-64
2023/11/18 05:34:14;;;;;;;9.55;6.00;;;;;;;0.99;100.00;98220.75;5040436;28;20056;-65
2023/11/18 05:36:40;;;;;;;8.80;5.80;;;;;;;0.94;100.00;98227.59;5046993;28;20044;-64
2023/11/18 05:39:09;;;;;;;10.75;6.05;;;;;;;1.00;100.00;98233.09;5044489;28;20045;-65
2023/11/18 05:41:39;;;;;;;9.75;6.43;;;;;;;1.02;100.00;98231.09;5042228;28;20515;-65
2023/11/18 05:44:08;;;;;;;9.48;6.70;;;;;;;1.01;100.00;98231.25;5036665;28;20044;-64
2023/11/18 05:46:35;;;;;;;11.18;6.63;;;;;;;1.02;100.00;98230.25;5036593;28;20120;-64
2023/11/18 05:49:07;;;;;;;10.32;6.63;;;;;;;1.10;100.00;98240.09;5045024;28;20041;-64
2023/11/18 05:51:33;;;;;;;8.25;5.57;;;;;;;1.03;100.00;98229.25;5037753;28;20114;-65
2023/11/18 05:54:01;;;;;;;9.20;5.05;;;;;;;1.01;100.00;98221.44;5043868;28;20040;-65
2023/11/18 05:56:27;;;;;;;8.07;4.82;;;;;;;1.04;100.00;98226.41;5035547;28;20049;-65
2023/11/18 05:58:54;;;;;;;9.77;4.57;;;;;;;1.01;100.00;98221.44;5030724;28;20029;-65
2023/11/18 06:01:21;;;;;;;9.25;5.30;;;;;;;0.93;100.00;98209.94;5031584;28;20045;-64
2023/11/18 06:03:48;;;;;;;9.38;5.30;;;;;;;0.87;100.00;98195.44;5037295;28;20036;-64
2023/11/18 06:06:16;;;;;;;9.07;4.95;;;;;;;0.89;100.00;98196.13;5045570;28;20042;-64
2023/11/18 06:08:49;;;;;;;8.13;4.90;;;;;;;0.95;100.00;98221.28;5041460;28;20041;-64
2023/11/18 06:11:16;;;;;;;8.68;4.70;;;;;;;1.10;100.00;98218.75;5047000;28;20073;-64
2023/11/18 06:13:50;;;;;;;7.97;5.30;;;;;;;1.04;100.00;98205.06;5041462;28;20049;-64
2023/11/18 06:16:22;;;;;;;7.43;4.20;;;;;;;0.99;100.00;98188.75;5033000;28;20052;-64
2023/11/18 06:18:55;;;;;;;9.70;4.72;;;;;;;0.90;100.00;98177.28;5042722;28;20036;-65
2023/11/18 06:21:24;;;;;;;7.88;4.40;;;;;;;0.99;100.00;98186.09;5039797;28;20045;-64
2023/11/18 06:23:51;;;;;;;9.95;4.32;;;;;;;1.14;100.00;98188.88;5051042;28;20661;-64
2023/11/18 06:26:18;;;;;;;10.60;5.30;;;;;;;1.34;100.00;98180.50;5045081;28;20080;-65
2023/11/18 06:28:45;;;;;;;8.10;4.45;;;;;;;1.39;100.00;98169.28;5050589;28;20110;-64
2023/11/18 06:31:13;;;;;;;7.47;4.00;;;;;;;1.48;100.00;98173.63;5036380;28;20038;-65
2023/11/18 06:33:44;;;;;;;6.50;3.92;;;;;;;1.45;100.00;98162.44;5042798;28;20045;-64
2023/11/18 06:36:14;;;;;;;7.97;4.30;;;;;;;1.21;100.00;98150.88;5032529;28;20045;-64
2023/11/18 06:38:41;;;;;;;7.38;4.05;;;;;;;1.29;100.00;98157.00;5041483;28;20114;-65
2023/11/18 06:41:10;;;;;;;7.45;4.07;;;;;;;1.39;100.00;98163.97;5037280;28;20128;-64
2023/11/18 06:44:23;;;;;;;6.53;3.78;;;;;;;1.52;100.00;98166.91;5046875;28;20094;-64
2023/11/18 06:46:33;;;;;;;6.13;3.85;;;;;;;1.41;100.00;98161.97;5041182;28;20088;-64
2023/11/18 06:49:03;;;;;;;8.45;4.10;;;;;;;1.39;100.00;98143.44;5048668;28;20293;-64
2023/11/18 06:51:34;;;;;;;6.45;4.05;;;;;;;1.23;100.00;98141.69;5030065;28;20056;-64
2023/11/18 06:54:13;;;;;;;8.05;3.70;;;;;;;1.36;100.00;98143.78;5044889;28;20068;-64
2023/11/18 06:56:44;;;;;;;6.57;3.42;;;;;;;1.50;100.00;98128.88;5034846;28;20044;-65
2023/11/18 06:59:12;;;;;;;8.50;3.80;;;;;;;1.56;100.00;98122.84;5034466;28;20061;-64
2023/11/18 07:01:46;;;;;;;6.18;3.22;;;;;;;1.63;100.00;98135.50;5043213;28;20036;-64
2023/11/18 07:04:14;;;;;;;6.32;3.53;;;;;;;1.63;100.00;98128.34;5045405;28;20128;-65
2023/11/18 07:06:42;;;;;;;8.18;4.35;;;;;;;1.39;100.00;98138.13;5043031;28;20102;-65
2023/11/18 07:09:13;;;;;;;6.10;3.92;;;;;;;1.41;100.00;98137.94;5031840;28;20054;-65
2023/11/18 07:11:43;;;;;;;9.85;4.38;;;;;;;1.53;100.00;98155.22;5041601;28;20425;-65
2023/11/18 07:14:11;;;;;;;7.65;4.00;;;;;;;1.49;100.00;98163.75;5043529;28;20515;-65
2023/11/18 07:16:41;;;;;;;7.43;4.00;;;;;;;1.60;100.00;98170.53;5047377;28;20041;-65
2023/11/18 07:19:09;;;;;;;7.60;3.55;;;;;;;1.71;100.00;98175.50;5049889;28;20040;-65
2023/11/18 07:21:36;;;;;;;5.47;3.17;;;;;;;1.87;100.00;98179.06;5040748;28;20045;-65
2023/11/18 07:24:03;;;;;;;7.13;3.95;;;;;;;1.88;100.00;98180.75;5036550;28;20045;-64
2023/11/18 07:26:30;;;;;;;7.28;4.22;;;;;;;1.87;100.00;98177.25;5046554;28;20057;-65
2023/11/18 07:28:56;;;;;;;9.00;4.75;;;;;;;1.88;100.00;98170.88;5044138;28;20036;-65
2023/11/18 07:31:24;;;;;;;6.43;4.53;;;;;;;1.98;100.00;98175.19;5048701;28;20041;-65
2023/11/18 07:33:51;;;;;;;7.82;4.18;;;;;;;2.11;100.00;98167.41;5048503;28;20444;-65
2023/11/18 07:36:19;;;;;;;8.57;4.03;;;;;;;2.17;100.00;98169.38;5044169;28;20045;-65
2023/11/18 07:38:46;;;;;;;8.07;4.03;;;;;;;2.32;100.00;98158.75;5047101;28;20112;-64
2023/11/18 07:41:27;;;;;;;7.00;4.00;;;;;;;2.33;100.00;98152.38;5040150;28;20091;-64
2023/11/18 07:43:58;;;;;;;6.60;3.85;;;;;;;2.39;100.00;98148.16;5048089;28;20041;-65
2023/11/18 07:46:25;;;;;;;7.38;4.40;;;;;;;2.42;100.00;98145.13;5048504;28;20127;-65
2023/11/18 07:48:52;;;;;;;8.25;3.72;;;;;;;2.43;100.00;98144.13;5049132;28;20210;-64
2023/11/18 07:51:21;;;;;;;9.35;4.25;;;;;;;2.47;100.00;98128.56;5050140;28;20068;-64
2023/11/18 07:53:49;;;;;;;7.53;4.60;;;;;;;2.56;100.00;98131.97;5042763;28;20045;-64
2023/11/18 07:56:16;;;;;;;7.03;4.13;;;;;;;2.68;100.00;98132.34;5046288;28;20071;-65
2023/11/18 07:58:45;;;;;;;7.70;4.57;;;;;;;2.66;100.00;98129.91;5050741;28;20115;-64
2023/11/18 08:01:12;;;;;;;8.25;4.95;;;;;;;2.59;100.00;98128.94;5047918;28;20037;-65
2023/11/18 08:03:41;;;;;;;7.38;3.88;;;;;;;2.64;100.00;98129.22;5042506;28;20564;-64
2023/11/18 08:06:08;;;;;;;8.95;4.95;;;;;;;2.64;100.00;98142.59;5040692;28;20052;-64
2023/11/18 08:08:37;;;;;;;11.07;4.55;;;;;;;2.74;100.00;98145.03;5044919;28;20053;-65
2023/11/18 08:11:14;;;;;;;6.85;4.20;;;;;;;2.77;100.00;98139.31;5034305;28;20405;-64
2023/11/18 08:13:41;;;;;;;8.45;4.07;;;;;;;2.79;100.00;98141.78;5045793;28;20040;-65
2023/11/18 08:16:08;;;;;;;6.18;3.90;;;;;;;2.88;100.00;98147.88;5039437;28;20672;-64
2023/11/18 08:18:35;;;;;;;6.20;3.58;;;;;;;3.03;100.00;98147.91;5048919;28;20041;-65
2023/11/18 08:21:02;;;;;;;5.63;3.60;;;;;;;2.97;100.00;98157.50;5052746;28;20055;-65
2023/11/18 08:23:29;;;;;;;6.75;3.92;;;;;;;2.94;100.00;98152.50;5043898;28;20045;-65
2023/11/18 08:25:55;;;;;;;5.85;3.42;;;;;;;2.94;100.00;98142.63;5036399;28;20045;-65
2023/11/18 08:28:22;;;;;;;7.53;3.72;;;;;;;2.92;100.00;98150.03;5043405;28;20508;-65
2023/11/18 08:30:51;;;;;;;6.30;4.18;;;;;;;2.88;100.00;98145.22;5045939;28;20045;-65
2023/11/18 08:33:18;;;;;;;6.07;4.18;;;;;;;2.94;100.00;98150.66;5042879;28;20068;-65
2023/11/18 08:35:46;;;;;;;7.40;4.05;;;;;;;3.07;100.00;98143.84;5038869;28;20036;-64
2023/11/18 08:38:12;;;;;;;7.97;3.90;;;;;;;3.10;100.00;98140.81;5046080;28;20071;-64
2023/11/18 08:40:40;;;;;;;6.40;3.78;;;;;;;3.17;100.00;98127.50;5046181;28;20039;-65
2023/11/18 08:43:07;;;;;;;6.50;4.00;;;;;;;3.21;100.00;98128.81;5042819;28;20070;-65
2023/11/18 08:45:34;;;;;;;7.32;4.05;;;;;;;3.25;100.00;98138.94;5042673;28;20044;-65
2023/11/18 08:48:07;;;;;;;6.40;4.47;;;;;;;3.31;100.00;98136.56;5042517;28;20720;-65
2023/11/18 08:50:35;;;;;;;9.70;4.53;;;;;;;3.34;100.00;98138.84;5044572;28;20041;-65
2023/11/18 08:53:05;;;;;;;6.50;3.92;;;;;;;3.36;100.00;98137.63;5041158;28;20051;-64
2023/11/18 08:55:39;;;;;;;7.32;4.32;;;;;;;3.44;100.00;98126.00;5044218;28;20053;-64
2023/11/18 08:58:18;;;;;;;6.90;4.68;;;;;;;3.49;100.00;98120.91;5044798;28;20043;-65
2023/11/18 09:03:27;;;;;;;7.75;3.65;;;;;;;3.68;100.00;98118.66;5044617;28;20064;-64
2023/11/18 09:05:57;;;;;;;5.80;3.88;;;;;;;3.75;100.00;98113.38;5039621;28;20048;-64
2023/11/18 09:08:27;;;;;;;5.80;3.58;;;;;;;3.81;100.00;98119.81;5041458;28;20116;-65
2023/11/18 09:10:54;;;;;;;5.78;3.63;;;;;;;3.94;100.00;98121.81;5047347;28;20051;-65
2023/11/18 09:13:22;;;;;;;5.70;3.67;;;;;;;3.98;100.00;98117.75;5039433;28;20124;-65
2023/11/18 09:15:49;;;;;;;6.65;3.88;;;;;;;3.95;100.00;98121.63;5042448;28;20099;-65
2023/11/18 09:18:17;;;;;;;7.93;3.60;;;;;;;3.94;100.00;98109.22;5046304;28;20117;-65
2023/11/18 09:20:47;;;;;;;5.57;3.30;;;;;;;3.96;100.00;98122.44;5035304;28;20041;-64
2023/11/18 09:23:15;;;;;;;7.10;3.58;;;;;;;4.05;100.00;98110.56;5037155;28;20052;-64
2023/11/18 09:25:46;;;;;;;6.38;3.45;;;;;;;4.23;100.00;98122.69;5044373;28;20123;-65
2023/11/18 09:28:14;;;;;;;5.18;3.45;;;;;;;4.33;100.00;98115.19;5037541;28;20037;-64
2023/11/18 09:30:57;;;;;;;7.95;3.15;;;;;;;4.29;100.00;98120.09;5037343;28;20037;-64
2023/11/18 09:33:25;;;;;;;5.85;3.42;;;;;;;4.31;100.00;98111.84;5042601;28;20087;-64
2023/11/18 09:35:58;;;;;;;4.80;2.78;;;;;;;4.52;100.00;98113.69;5039441;28;20464;-64
2023/11/18 09:38:27;;;;;;;6.47;3.55;;;;;;;4.50;100.00;98114.91;5045368;28;20098;-64
2023/11/18 09:40:55;;;;;;;6.47;3.40;;;;;;;4.61;100.00;98121.59;5047767;28;20041;-65
2023/11/18 09:43:24;;;;;;;5.72;3.45;;;;;;;4.64;100.00;98118.53;5041267;28;20072;-65
2023/11/18 09:45:55;;;;;;;5.43;3.13;;;;;;;4.72;100.00;98112.16;5040194;28;20124;-64
2023/11/18 09:48:25;;;;;;;4.68;2.38;;;;;;;4.86;100.00;98107.72;5045694;28;20033;-65
2023/11/18 09:50:53;;;;;;;4.93;2.90;;;;;;;4.87;100.00;98104.81;5043080;28;20033;-65
2023/11/18 09:53:20;;;;;;;6.35;3.20;;;;;;;4.86;100.00;98102.38;5040671;28;20045;-64
2023/11/18 09:55:59;;;;;;;6.93;2.92;;;;;;;4.95;100.00;98098.50;5044451;28;20056;-64
2023/11/18 09:58:41;;;;;;;4.60;2.47;;;;;;;5.01;100.00;98100.38;5051815;28;20071;-65
2023/11/18 10:01:13;;;;;;;6.25;2.90;;;;;;;5.10;100.00;98105.56;5038853;28;20068;-65
2023/11/18 10:03:43;;;;;;;5.63;2.75;;;;;;;5.21;100.00;98108.53;5048395;28;20116;-65
2023/11/18 10:06:11;;;;;;;4.95;2.50;;;;;;;5.35;100.00;98105.94;5045414;28;20048;-65
2023/11/18 10:08:38;;;;;;;5.40;2.92;;;;;;;5.39;100.00;98101.81;5042835;28;20041;-65
2023/11/18 10:11:09;;;;;;;8.25;2.63;;;;;;;5.52;100.00;98101.03;5049419;28;20037;-65
2023/11/18 10:13:40;;;;;;;4.83;2.73;;;;;;;5.39;100.00;98104.50;5043454;28;20489;-65
2023/11/18 10:16:08;;;;;;;3.83;2.20;;;;;;;5.32;100.00;98107.16;5049950;28;20285;-64
2023/11/18 10:18:36;;;;;;;5.10;2.78;;;;;;;5.29;100.00;98109.38;5049100;28;20119;-65
2023/11/18 10:21:11;;;;;;;4.45;2.42;;;;;;;5.37;100.00;98097.63;5044968;28;20036;-65
2023/11/18 10:23:38;;;;;;;5.75;2.30;;;;;;;5.37;100.00;98095.78;5035798;28;20073;-65
2023/11/18 10:26:04;;;;;;;5.55;2.40;;;;;;;5.38;100.00;98110.88;5044856;28;20033;-64
2023/11/18 10:28:36;;;;;;;4.35;2.13;;;;;;;5.51;100.00;98112.81;5055107;28;20037;-64
2023/11/18 10:31:05;;;;;;;5.20;1.90;;;;;;;5.52;100.00;98109.06;5045506;28;20293;-64
2023/11/18 10:33:35;;;;;;;7.43;2.63;;;;;;;5.54;100.00;98103.50;5040871;28;20041;-64
2023/11/18 10:36:04;;;;;;;5.15;2.30;;;;;;;5.58;100.00;98113.66;5043432;28;20107;-64
2023/11/18 10:38:32;;;;;;;3.42;2.00;;;;;;;5.60;100.00;98108.06;5040068;28;20048;-65
2023/11/18 10:41:02;;;;;;;6.88;2.53;;;;;;;5.69;100.00;98108.72;5036131;28;20454;-60
2023/11/18 10:43:28;;;;;;;4.53;2.22;;;;;;;5.73;100.00;98100.06;5043416;28;20041;-58
2023/11/18 10:46:13;;;;;;;3.53;1.77;;;;;;;5.91;100.00;98093.28;5043750;28;20515;-59
2023/11/18 10:48:50;;;;;;;4.43;2.03;;;;;;;6.02;100.00;98097.22;5041343;28;20041;-64
2023/11/18 10:51:26;;;;;;;4.38;2.20;;;;;;;6.02;100.00;98091.00;5038555;28;20041;-64
2023/11/18 10:53:56;;;;;;;5.68;2.30;;;;;;;6.13;100.00;98095.81;5041681;28;20492;-64
2023/11/18 10:56:28;;;;;;;4.20;1.77;;;;;;;6.15;100.00;98091.06;5040447;28;20045;-63
2023/11/18 10:58:57;;;;;;;4.97;2.10;;;;;;;5.95;100.00;98089.16;5046126;28;20037;-63
2023/11/18 11:01:31;;;;;;;4.55;2.30;;;;;;;6.04;100.00;98072.88;5050815;28;20037;-63
2023/11/18 11:03:59;;;;;;;4.25;2.13;;;;;;;6.10;100.00;98072.88;5043632;28;20044;-63
2023/11/18 11:06:30;;;;;;;5.50;2.30;;;;;;;6.17;100.00;98074.72;5042029;28;20036;-63
2023/11/18 11:09:00;;;;;;;4.15;2.17;;;;;;;6.04;100.00;98078.25;5049794;28;20068;-63
2023/11/18 11:11:40;;;;;;;4.43;2.22;;;;;;;6.03;100.00;98079.22;5051704;28;20032;-63
2023/11/18 11:14:11;;;;;;;5.93;2.95;;;;;;;6.02;100.00;98083.78;5039702;28;20087;-63
2023/11/18 11:16:43;;;;;;;5.05;2.53;;;;;;;6.08;100.00;98082.97;5041564;28;20046;-63
2023/11/18 11:19:22;;;;;;;5.75;2.60;;;;;;;6.11;100.00;98095.19;5046573;28;20055;-63
2023/11/18 11:21:55;;;;;;;6.75;2.72;;;;;;;6.11;100.00;98079.06;5038319;28;20089;-63
2023/11/18 11:24:56;;;;;;;4.97;2.63;;;;;;;6.08;100.00;98079.50;5045997;28;20419;-63
2023/11/18 11:27:35;;;;;;;5.40;2.38;;;;;;;6.16;100.00;98075.75;5045899;28;20044;-63
2023/11/18 11:30:10;;;;;;;5.13;2.60;;;;;;;6.20;100.00;98072.44;5036067;28;20056;-63
2023/11/18 11:32:59;;;;;;;5.43;2.40;;;;;;;6.25;100.00;98058.38;5045265;28;20592;-63
2023/11/18 11:35:38;;;;;;;6.75;2.95;;;;;;;6.27;100.00;98056.34;5044641;28;20040;-64
2023/11/18 11:38:09;;;;;;;6.47;2.97;;;;;;;6.34;100.00;98049.06;5041816;28;20051;-63
2023/11/18 11:40:37;;;;;;;6.82;2.83;;;;;;;6.31;100.00;98051.34;5036340;28;20045;-64
2023/11/18 11:43:10;;;;;;;6.43;2.63;;;;;;;6.33;100.00;98039.34;5043529;28;20527;-63